Flight Track Log - Related Links

Times and Time Zones

All times are in EDT time to prevent confusion due to time zone crossing. See the A6-EGC flight status page for this flight to view local times or setup timezone preferences in your user account.

Time Position Orientation Groundspeed Altitude Reporting Facility
EDT Latitude Longitude Course Direction KTS MPH feet Rate Location/Type
Tue 07:34:00 PM 19.3067 72.3472 294° West  Level Estimated
Tue 07:35:00 PM 19.3502 72.2429 294° West  Level Estimated
Tue 07:36:00 PM 19.3935 72.1386 294° West  Level Estimated
Tue 07:37:00 PM 19.4368 72.0342 294° West  Level Estimated
Tue 07:38:00 PM 19.4801 71.9297 294° West  Level Estimated
Tue 07:39:00 PM 19.5233 71.8252 294° West  Level Estimated
Tue 07:40:00 PM 19.5664 71.7206 294° West  Level Estimated
Tue 07:41:00 PM 19.6095 71.6160 294° West  Level Estimated
Tue 07:42:00 PM 19.6525 71.5113 294° West  Level Estimated
Tue 07:43:00 PM 19.6954 71.4065 294° West  Level Estimated
Tue 07:44:00 PM 19.7383 71.3017 294° West  Level Estimated
Tue 07:45:00 PM 19.7812 71.1969 293° West  Level Estimated
Tue 07:46:00 PM 19.8239 71.0919 293° West  Level Estimated
Tue 07:47:00 PM 19.8666 70.9870 293° West  Level Estimated
Tue 07:48:00 PM 19.9093 70.8819 293° West  Level Estimated
Tue 07:49:00 PM 19.9519 70.7768 293° West  Level Estimated
Tue 07:50:00 PM 19.9944 70.6717 293° West  Level Estimated
Tue 07:51:00 PM 20.0369 70.5665 293° West  Level Estimated
Tue 07:52:00 PM 20.0793 70.4613 293° West  Level Estimated
Tue 07:53:00 PM 20.1216 70.3559 293° West  Level Estimated
Tue 07:54:00 PM 20.1639 70.2506 293° West  Level Estimated
Tue 07:55:00 PM 20.2061 70.1451 293° West  Level Estimated
Tue 07:56:00 PM 20.2482 70.0397 293° West  Level Estimated
Tue 07:57:00 PM 20.2903 69.9341 293° West  Level Estimated
Tue 07:58:00 PM 20.3323 69.8285 293° West  Level Estimated
Tue 07:59:00 PM 20.3743 69.7229 293° West  Level Estimated
Tue 08:00:00 PM 20.4162 69.6171 293° West  Level Estimated
Tue 08:01:00 PM 20.4580 69.5114 293° West  Level Estimated
Tue 08:02:00 PM 20.4998 69.4055 293° West  Level Estimated
Tue 08:03:00 PM 20.5415 69.2997 293° West  Level Estimated
Tue 08:04:00 PM 20.5831 69.1937 293° West  Level Estimated
Tue 08:05:00 PM 20.6247 69.0877 293° West  Level Estimated
Tue 08:06:00 PM 20.6662 68.9817 293° West  Level Estimated
Tue 08:07:00 PM 20.7077 68.8755 293° West  Level Estimated
Tue 08:08:00 PM 20.7491 68.7694 293° West  Level Estimated
Tue 08:09:00 PM 20.7904 68.6631 293° West  Level Estimated
Tue 08:10:00 PM 20.8316 68.5568 293° West  Level Estimated
Tue 08:11:00 PM 20.8728 68.4505 293° West  Level Estimated
Tue 08:12:00 PM 20.9139 68.3441 292° West  Level Estimated
Tue 08:13:00 PM 20.9550 68.2376 292° West  Level Estimated
Tue 08:14:00 PM 20.9960 68.1311 292° West  Level Estimated
Tue 08:15:00 PM 21.0369 68.0245 292° West  Level Estimated
Tue 08:16:00 PM 21.0777 67.9179 292° West  Level Estimated
Tue 08:17:00 PM 21.1185 67.8112 292° West  Level Estimated
Tue 08:18:00 PM 21.1592 67.7044 292° West  Level Estimated
Tue 08:19:00 PM 21.1999 67.5976 292° West  Level Estimated
Tue 08:20:00 PM 21.2405 67.4907 292° West  Level Estimated
Tue 08:21:00 PM 21.2810 67.3838 292° West  Level Estimated
Tue 08:22:00 PM 21.3214 67.2768 292° West  Level Estimated
Tue 08:23:00 PM 21.3618 67.1697 292° West  Level Estimated
Tue 08:24:00 PM 21.4021 67.0626 292° West  Level Estimated
Tue 08:25:00 PM 21.4424 66.9554 292° West  Level Estimated
Tue 08:26:00 PM 21.4826 66.8482 292° West  Level Estimated
Tue 08:27:00 PM 21.5227 66.7409 292° West  Level Estimated
Tue 08:28:00 PM 21.5627 66.6336 292° West  Level Estimated
Tue 08:29:00 PM 21.6027 66.5262 292° West  Level Estimated
Tue 08:30:00 PM 21.6426 66.4187 292° West  Level Estimated
Tue 08:31:00 PM 21.6824 66.3112 292° West  Level Estimated
Tue 08:32:00 PM 21.7222 66.2036 292° West  Level Estimated
Tue 08:33:00 PM 21.7619 66.0959 292° West  Level Estimated
Tue 08:34:00 PM 21.8015 65.9882 292° West  Level Estimated
Tue 08:35:00 PM 21.8411 65.8804 292° West  Level Estimated
Tue 08:36:00 PM 21.8806 65.7726 292° West  Level Estimated
Tue 08:37:00 PM 21.9200 65.6647 292° West  Level Estimated
Tue 08:38:00 PM 21.9594 65.5568 291° West  Level Estimated
Tue 08:39:00 PM 21.9986 65.4488 291° West  Level Estimated
Tue 08:40:00 PM 22.0378 65.3408 291° West  Level Estimated
Tue 08:41:00 PM 22.0770 65.2326 291° West  Level Estimated
Tue 08:42:00 PM 22.1160 65.1245 291° West  Level Estimated
Tue 08:43:00 PM 22.1550 65.0162 291° West  Level Estimated
Tue 08:44:00 PM 22.1939 64.9079 291° West  Level Estimated
Tue 08:45:00 PM 22.2328 64.7996 291° West  Level Estimated
Tue 08:46:00 PM 22.2716 64.6911 291° West  Level Estimated
Tue 08:47:00 PM 22.3103 64.5826 291° West  Level Estimated
Tue 08:48:00 PM 22.3489 64.4741 291° West  Level Estimated
Tue 08:49:00 PM 22.3874 64.3655 291° West  Level Estimated
Tue 08:50:00 PM 22.4259 64.2569 291° West  Level Estimated
Tue 08:51:00 PM 22.4643 64.1481 291° West  Level Estimated
Tue 08:52:00 PM 22.5027 64.0394 291° West  Level Estimated
Tue 08:53:00 PM 22.5410 63.9305 291° West  Level Estimated
Tue 08:54:00 PM 22.5792 63.8216 291° West  Level Estimated
Tue 08:55:00 PM 22.6173 63.7127 291° West  Level Estimated
Tue 08:56:00 PM 22.6553 63.6036 291° West  Level Estimated
Tue 08:57:00 PM 22.6933 63.4945 291° West  Level Estimated
Tue 08:58:00 PM 22.7312 63.3854 291° West  Level Estimated
Tue 08:59:00 PM 22.7690 63.2762 291° West  Level Estimated
Tue 09:00:00 PM 22.8068 63.1669 291° West  Level Estimated
Tue 09:01:00 PM 22.8445 63.0576 291° West  Level Estimated
Tue 09:02:00 PM 22.8821 62.9482 290° West  Level Estimated
Tue 09:03:00 PM 22.9196 62.8387 290° West  Level Estimated
Tue 09:04:00 PM 22.9570 62.7292 290° West  Level Estimated
Tue 09:05:00 PM 22.9944 62.6197 290° West  Level Estimated
Tue 09:06:00 PM 23.0317 62.5100 290° West  Level Estimated
Tue 09:07:00 PM 23.0690 62.4003 290° West  Level Estimated
Tue 09:08:00 PM 23.1061 62.2906 290° West  Level Estimated
Tue 09:09:00 PM 23.1432 62.1808 290° West  Level Estimated
Tue 09:10:00 PM 23.1802 62.0709 290° West  Level Estimated
Tue 09:11:00 PM 23.2171 61.9610 290° West  Level Estimated
Tue 09:12:00 PM 23.2539 61.8510 290° West  Level Estimated
Tue 09:13:00 PM 23.2907 61.7409 290° West  Level Estimated
Tue 09:14:00 PM 23.3274 61.6308 290° West  Level Estimated
Tue 09:15:00 PM 23.3640 61.5206 290° West  Level Estimated
Tue 09:16:00 PM 23.4006 61.4104 290° West  Level Estimated
Tue 09:17:00 PM 23.4370 61.3001 290° West  Level Estimated
Tue 09:18:00 PM 23.4734 61.1897 290° West  Level Estimated
Tue 09:19:00 PM 23.5097 61.0793 290° West  Level Estimated
Tue 09:20:00 PM 23.5459 60.9688 290° West  Level Estimated
Tue 09:21:00 PM 23.5821 60.8583 290° West  Level Estimated
Tue 09:22:00 PM 23.6182 60.7477 290° West  Level Estimated
Tue 09:23:00 PM 23.6542 60.6370 290° West  Level Estimated
Tue 09:24:00 PM 23.6901 60.5263 290° West  Level Estimated
Tue 09:25:00 PM 23.7259 60.4155 289° West  Level Estimated
Tue 09:26:00 PM 23.7617 60.3047 289° West  Level Estimated
Tue 09:27:00 PM 23.7973 60.1938 289° West  Level Estimated
Tue 09:28:00 PM 23.8329 60.0828 289° West  Level Estimated
Tue 09:29:00 PM 23.8685 59.9718 289° West  Level Estimated
Tue 09:30:00 PM 23.9039 59.8607 289° West  Level Estimated
Tue 09:31:00 PM 23.9393 59.7495 289° West  Level Estimated
Tue 09:32:00 PM 23.9745 59.6383 289° West  Level Estimated
Tue 09:33:00 PM 24.0097 59.5270 289° West  Level Estimated
Tue 09:34:00 PM 24.0449 59.4157 289° West  Level Estimated
Tue 09:35:00 PM 24.0799 59.3043 289° West  Level Estimated
Tue 09:35:29 PM 24.4400 57.5140 289° West 453 521 32,000  Level FlightAware ADS-B
Tue 09:36:00 PM 24.1149 59.1929 289° West  Level Estimated
Tue 09:36:29 PM 24.4770 57.3920 288° West 453 521 32,000  Level FlightAware ADS-B
Tue 09:37:14 PM 24.5040 57.3020 288° West 453 521 32,000 -71 Level FlightAware ADS-B
Tue 09:37:54 PM 24.5370 57.1980 289° West 454 522 31,900 -800 Descending FlightAware ADS-B
Tue 09:38:29 PM 24.5590 57.1260 289° West 437 503 31,000 -2,000 Descending FlightAware ADS-B
Tue 09:39:09 PM 24.5840 57.0430 288° West 429 494 29,400 -2,400 Descending FlightAware ADS-B
Tue 09:39:59 PM 24.6170 56.9370 289° West 423 487 27,400 -2,600 Descending FlightAware ADS-B
Tue 09:40:39 PM 24.6420 56.8560 289° West 427 491 25,500 -2,775 Descending FlightAware ADS-B
Tue 09:41:19 PM 24.6830 56.7730 299° West 419 482 23,700 -2,653 Descending FlightAware ADS-B
Tue 09:42:14 PM 24.7360 56.6790 302° West 378 435 21,300 -2,280 Descending FlightAware ADS-B
Tue 09:42:59 PM 24.7710 56.6140 301° West 372 428 19,900 -2,933 Descending FlightAware ADS-B
Tue 09:43:44 PM 24.8090 56.5460 302° West 354 407 16,900 -2,250 Descending FlightAware ADS-B
Tue 09:44:19 PM 24.8360 56.4940 300° West 354 407 16,900  Level FlightAware ADS-B
Tue 09:44:59 PM 24.8640 56.4410 300° West 354 407 16,900  Level FlightAware ADS-B
Tue 09:45:49 PM 24.8990 56.3750 300° West 354 407 16,900 -3,240 Level FlightAware ADS-B
Tue 09:46:04 PM 24.9020 56.3160 273° West 12,500 -6,480 Descending FlightAware ADS-B
Tue 09:46:39 PM 24.9190 56.2580 288° West 333 383 11,500 -1,553 Descending FlightAware ADS-B
Tue 09:47:29 PM 24.9390 56.1880 288° West 294 338 10,300 -933 Descending FlightAware ADS-B
Tue 09:48:09 PM 24.9560 56.1310 288° West 267 307 10,100 -171 Descending FlightAware ADS-B
Tue 09:48:39 PM 24.9700 56.1000 296° West 261 300 10,100  Level FlightAware ADS-B
Tue 09:48:49 PM 24.9850 56.0900 329° Northwest 260 299 10,100  Level FlightAware ADS-B
Tue 09:49:34 PM 25.0330 56.0760 345° North 269 310 10,100  Level FlightAware ADS-B
Tue 09:50:14 PM 25.0650 56.1250 54° Northeast 269 310 10,100  Level FlightAware ADS-B
Tue 09:50:54 PM 25.1060 56.1130 345° North 269 310 10,100  Level FlightAware ADS-B
Tue 09:51:44 PM 25.1570 56.0980 345° North 269 310 10,100  Level FlightAware ADS-B
Tue 09:54:00 PM 25.1903 55.8514 279° West  Level Estimated
Tue 09:54:39 PM 24.9240 56.1750 279° West 10,100  Level FlightAware ADS-B
Tue 09:55:04 PM 24.9410 56.1470 304° West 268 308 10,100  Level FlightAware ADS-B
Tue 09:55:49 PM 24.9740 56.0990 307° West 268 308 10,100  Level FlightAware ADS-B
Tue 09:56:34 PM 25.0050 56.0530 307° West 268 308 10,100  Level FlightAware ADS-B
Tue 09:56:44 PM 25.0310 56.1170 66° East 273 314 10,100  Level FlightAware ADS-B
Tue 09:57:49 PM 25.0100 56.2060 105° East 273 314 10,100  Level FlightAware ADS-B
Tue 09:58:29 PM 24.9880 56.2540 117° Southeast 279 321 10,100  Level FlightAware ADS-B
Tue 09:58:59 PM 24.9560 56.2810 143° Southeast 273 314 10,100  Level FlightAware ADS-B
Tue 09:59:29 PM 24.9180 56.2850 175° South 273 314 10,100  Level FlightAware ADS-B
Tue 10:00:09 PM 24.9000 56.2240 252° West 272 313 10,100  Level FlightAware ADS-B
Tue 10:00:44 PM 24.9180 56.1810 295° West 268 308 10,100  Level FlightAware ADS-B
Tue 10:01:29 PM 24.9490 56.1270 302° West 268 308 10,100  Level FlightAware ADS-B
Tue 10:02:34 PM 24.9910 56.0530 302° West 269 310 10,100 -489 Level FlightAware ADS-B
Tue 10:03:44 PM 25.0360 55.9730 302° West 264 304 9,000 -660 Descending FlightAware ADS-B
Tue 10:04:14 PM 25.0510 55.9430 299° West 264 304 9,000 -975 Level FlightAware ADS-B
Tue 10:05:04 PM 25.1080 55.8930 322° Northwest 267 307 7,700 -809 Descending FlightAware ADS-B
Tue 10:07:00 PM 25.1647 55.6899 287° West  Level Estimated
Tue 10:07:49 PM 25.2250 55.7210 287° West 256 295 6,100  Level FlightAware ADS-B
Tue 10:09:19 PM 25.2750 55.6280 301° West 232 267 6,100 -158 Level FlightAware ADS-B
Tue 10:10:59 PM 25.2830 55.5380 276° West 235 270 5,600 -240 Descending FlightAware ADS-B
Tue 10:11:24 PM 25.2630 55.5220 216° Southwest 235 270 5,600 -771 Level FlightAware ADS-B
Tue 10:14:00 PM 25.2550 55.3643 267° West  Level Estimated
Tue 10:14:29 PM 25.1540 55.5320 267° West 174 200 2,900  Level FlightAware ADS-B
Tue 10:17:00 PM 25.2550 55.3643 304° West  Level Estimated
Tue 10:17:34 PM 25.2270 55.4110 304° West 163 188 500  Level FlightAware ADS-B
Tue 10:17:59 PM 25.2360 55.3950 302° West 161 185 200 -720 Descending FlightAware ADS-B

Login

Don't have an account? Register now (free) for customized features, flight alerts, and more!